Time;durP1;ratioP1;P1;durP2;ratioP2;P2;SDS_P1;SDS_P2;PMS_P1;PMS_P2;Temp;Humidity;BMP_temperature;BMP_pressure;BME280_temperature;BME280_humidity;BME280_pressure;Samples;Min_cycle;Max_cycle;Signal;HPM_P1;HPM_P2
2024/04/19 00:02:01;;;;;;;;;;;;;;;17.36;51.11;100262.53;5386312;26;1211;-51
2024/04/19 00:04:27;;;;;;;;;;;;;;;16.71;52.79;100267.22;5362279;26;1342;-49
2024/04/19 00:06:52;;;;;;;;;;;;;;;16.45;53.28;100261.09;5386301;26;1246;-52
2024/04/19 00:09:18;;;;;;;;;;;;;;;16.22;53.52;100268.13;5385621;26;1307;-50
2024/04/19 00:11:43;;;;;;;;;;;;;;;16.15;53.44;100264.88;5386047;26;1133;-49
2024/04/19 00:14:09;;;;;;;;;;;;;;;17.45;51.34;100266.28;5385647;26;1195;-52
2024/04/19 00:16:34;;;;;;;;;;;;;;;17.23;51.67;100262.09;5385546;26;1271;-53
2024/04/19 00:19:00;;;;;;;;;;;;;;;16.62;53.00;100257.97;5385833;26;1195;-52
2024/04/19 00:21:26;;;;;;;;;;;;;;;16.37;53.35;100259.78;5385470;26;1829;-47
2024/04/19 00:23:51;;;;;;;;;;;;;;;16.12;53.58;100260.75;5385451;26;1129;-51
2024/04/19 00:26:17;;;;;;;;;;;;;;;16.50;53.47;100265.75;5385978;26;2890;-52
2024/04/19 00:28:42;;;;;;;;;;;;;;;17.79;50.22;100271.66;5385248;26;1255;-47
2024/04/19 00:31:08;;;;;;;;;;;;;;;16.89;52.35;100270.41;5385381;26;1160;-49
2024/04/19 00:33:35;;;;;;;;;;;;;;;16.53;53.14;100271.47;5386159;26;1125;-50
2024/04/19 00:36:00;;;;;;;;;;;;;;;16.21;53.60;100270.00;5385513;26;1280;-50
2024/04/19 00:38:26;;;;;;;;;;;;;;;16.05;53.94;100274.78;5384987;26;1310;-53
2024/04/19 00:40:52;;;;;;;;;;;;;;;17.52;51.18;100280.50;5384879;26;1863;-51
2024/04/19 00:43:17;;;;;;;;;;;;;;;17.23;51.51;100277.78;5385032;26;1446;-49
2024/04/19 00:45:43;;;;;;;;;;;;;;;16.60;53.00;100282.94;5385496;26;1243;-51
2024/04/19 00:48:08;;;;;;;;;;;;;;;16.34;53.31;100287.81;5385447;26;1163;-51
2024/04/19 00:50:53;;;;;;;;;;;;;;;16.19;53.47;100288.69;5385488;26;1209;-49
2024/04/19 00:53:21;;;;;;;;;;;;;;;16.22;53.67;100282.63;5384814;26;1060;-51
2024/04/19 00:55:46;;;;;;;;;;;;;;;17.70;50.54;100287.16;5395181;26;2753;-50
2024/04/19 00:58:12;;;;;;;;;;;;;;;16.98;52.07;100290.63;5385080;26;1159;-52
2024/04/19 01:00:37;;;;;;;;;;;;;;;16.48;52.92;100293.47;5354486;26;1868;-49
2024/04/19 01:03:03;;;;;;;;;;;;;;;16.29;53.33;100293.31;5384646;26;1271;-51
2024/04/19 01:05:28;;;;;;;;;;;;;;;16.08;53.60;100301.63;5353351;26;1161;-50
2024/04/19 01:07:54;;;;;;;;;;;;;;;17.46;51.16;100303.66;5385355;26;1172;-51
2024/04/19 01:10:19;;;;;;;;;;;;;;;17.08;51.69;100309.78;5385006;26;1319;-49
2024/04/19 01:12:45;;;;;;;;;;;;;;;16.52;53.08;100307.44;5385230;26;1203;-51
2024/04/19 01:15:17;;;;;;;;;;;;;;;16.25;53.56;100309.50;5384925;26;1129;-51
2024/04/19 01:17:43;;;;;;;;;;;;;;;16.10;53.68;100315.06;5384656;26;1086;-50
2024/04/19 01:20:08;;;;;;;;;;;;;;;17.04;52.22;100318.88;5385433;26;1822;-52
2024/04/19 01:22:34;;;;;;;;;;;;;;;17.62;50.34;100320.81;5385663;26;1233;-49
2024/04/19 01:24:59;;;;;;;;;;;;;;;16.79;52.40;100317.13;5358352;26;2589;-51
2024/04/19 01:27:25;;;;;;;;;;;;;;;16.36;53.41;100321.25;5403203;26;1227;-52
2024/04/19 01:29:50;;;;;;;;;;;;;;;16.22;53.44;100326.53;5384770;26;1121;-52
2024/04/19 01:32:16;;;;;;;;;;;;;;;16.85;52.63;100335.22;5385194;26;1215;-51
2024/04/19 01:34:41;;;;;;;;;;;;;;;17.51;50.72;100322.03;5384361;26;1282;-50
2024/04/19 01:37:07;;;;;;;;;;;;;;;16.69;52.56;100332.59;5384905;26;1248;-49
2024/04/19 01:39:32;;;;;;;;;;;;;;;16.40;53.30;100337.97;5384869;26;1833;-50
2024/04/19 01:41:58;;;;;;;;;;;;;;;16.19;53.61;100331.78;5383825;26;1061;-50
2024/04/19 01:44:23;;;;;;;;;;;;;;;16.36;53.62;100334.16;5384445;26;1473;-50
2024/04/19 01:46:49;;;;;;;;;;;;;;;17.82;50.08;100339.00;5384618;26;1172;-51
2024/04/19 01:49:14;;;;;;;;;;;;;;;16.98;52.03;100336.50;5383351;26;1270;-51
2024/04/19 01:51:40;;;;;;;;;;;;;;;16.54;52.88;100338.16;5384485;26;1157;-50
2024/04/19 01:54:05;;;;;;;;;;;;;;;16.30;53.31;100335.28;5384112;26;1219;-51
2024/04/19 01:56:31;;;;;;;;;;;;;;;16.06;53.75;100339.50;5384478;26;2934;-52
2024/04/19 01:58:56;;;;;;;;;;;;;;;16.55;53.33;100342.53;5384564;26;1075;-51
2024/04/19 02:01:22;;;;;;;;;;;;;;;17.93;49.72;100345.22;5384054;26;1837;-48
2024/04/19 02:03:47;;;;;;;;;;;;;;;16.94;52.07;100341.75;5384021;26;1281;-51
2024/04/19 02:06:13;;;;;;;;;;;;;;;16.56;53.03;100341.44;5383738;26;1092;-49
2024/04/19 02:08:39;;;;;;;;;;;;;;;16.26;53.51;100337.78;5384505;26;1160;-48
2024/04/19 02:11:04;;;;;;;;;;;;;;;16.11;53.69;100337.84;5384742;26;1263;-50
2024/04/19 02:13:30;;;;;;;;;;;;;;;17.23;51.87;100346.47;5407430;26;1240;-52
2024/04/19 02:15:56;;;;;;;;;;;;;;;17.33;50.94;100346.38;5383733;26;1173;-52
2024/04/19 02:18:21;;;;;;;;;;;;;;;16.65;52.84;100344.41;5383782;26;1372;-50
2024/04/19 02:20:47;;;;;;;;;;;;;;;16.41;53.24;100345.09;5383869;26;1821;-49
2024/04/19 02:23:12;;;;;;;;;;;;;;;16.22;53.31;100353.97;5383735;26;1128;-50
2024/04/19 02:25:38;;;;;;;;;;;;;;;16.12;53.73;100347.69;5383964;26;2542;-48
2024/04/19 02:30:59;;;;;;;;;;;;;;;17.12;51.66;100359.47;5383354;26;1059;-47
2024/04/19 02:33:25;;;;;;;;;;;;;;;16.62;52.89;100362.28;5407401;26;1243;-51
2024/04/19 02:35:51;;;;;;;;;;;;;;;16.36;53.27;100358.84;5383847;26;1398;-50
2024/04/19 02:38:16;;;;;;;;;;;;;;;16.24;53.32;100350.94;5383905;26;1137;-51
2024/04/19 02:40:42;;;;;;;;;;;;;;;17.51;51.00;100363.25;5383551;26;1824;-50
2024/04/19 02:43:07;;;;;;;;;;;;;;;17.23;51.28;100362.97;5382816;26;1176;-50
2024/04/19 02:45:40;;;;;;;;;;;;;;;16.67;52.84;100364.97;5383366;26;1414;-51
2024/04/19 02:48:06;;;;;;;;;;;;;;;16.36;53.44;100364.34;5383008;26;1332;-52
2024/04/19 02:50:31;;;;;;;;;;;;;;;16.15;53.65;100369.91;5406825;26;1315;-50
2024/04/19 02:53:13;;;;;;;;;;;;;;;16.05;53.73;100376.25;5383194;26;1073;-50
2024/04/19 02:55:39;;;;;;;;;;;;;;;17.30;51.44;100382.69;5393290;26;2683;-50
2024/04/19 02:58:04;;;;;;;;;;;;;;;17.66;50.34;100382.34;5383223;26;1144;-50
2024/04/19 03:00:42;;;;;;;;;;;;;;;16.80;52.47;100390.16;5383783;26;1856;-49
2024/04/19 03:03:07;;;;;;;;;;;;;;;16.38;53.43;100390.41;5387331;26;1227;-52
2024/04/19 03:05:33;;;;;;;;;;;;;;;16.21;53.70;100398.16;5386383;26;1153;-48
2024/04/19 03:07:58;;;;;;;;;;;;;;;16.53;53.39;100399.66;5403937;26;1277;-51
2024/04/19 03:10:24;;;;;;;;;;;;;;;17.89;49.96;100404.66;5392694;26;1216;-50
2024/04/19 03:12:50;;;;;;;;;;;;;;;16.96;52.00;100399.97;5386939;26;1225;-47
2024/04/19 03:15:15;;;;;;;;;;;;;;;16.50;53.16;100411.19;5386534;26;1212;-51
2024/04/19 03:17:41;;;;;;;;;;;;;;;16.31;53.53;100414.56;5386011;26;1275;-49
2024/04/19 03:20:06;;;;;;;;;;;;;;;16.13;53.72;100410.53;5386519;26;1825;-51
2024/04/19 03:22:32;;;;;;;;;;;;;;;17.14;52.01;100423.19;5386164;26;1173;-53
2024/04/19 03:24:58;;;;;;;;;;;;;;;17.47;50.80;100420.72;5386427;26;2688;-53
2024/04/19 03:27:23;;;;;;;;;;;;;;;16.71;52.78;100425.63;5386631;26;1132;-52
2024/04/19 03:29:52;;;;;;;;;;;;;;;16.43;53.22;100431.53;5385802;26;1160;-48
2024/04/19 03:32:17;;;;;;;;;;;;;;;16.22;53.62;100432.72;5386218;26;1254;-49
2024/04/19 03:34:43;;;;;;;;;;;;;;;17.54;51.10;100434.16;5386256;26;1357;-52
2024/04/19 03:37:09;;;;;;;;;;;;;;;17.22;51.43;100428.09;5386834;26;1215;-51
2024/04/19 03:39:34;;;;;;;;;;;;;;;16.66;52.89;100456.69;5385968;26;1833;-51
2024/04/19 03:42:02;;;;;;;;;;;;;;;16.39;53.37;100448.84;5386013;26;1160;-50
2024/04/19 03:47:12;;;;;;;;;;;;;;;17.75;50.42;100460.38;5384421;26;1474;-52
2024/04/19 03:49:37;;;;;;;;;;;;;;;17.06;51.91;100470.50;5386110;26;1595;-54
2024/04/19 03:52:03;;;;;;;;;;;;;;;16.53;53.25;100468.28;5386015;26;1199;-50
2024/04/19 03:54:28;;;;;;;;;;;;;;;16.37;53.41;100460.09;5385605;26;1255;-54
2024/04/19 03:56:54;;;;;;;;;;;;;;;16.13;53.73;100470.03;5386445;26;2847;-54
2024/04/19 03:59:19;;;;;;;;;;;;;;;16.67;53.18;100471.22;5381907;26;1864;-49
2024/04/19 04:01:47;;;;;;;;;;;;;;;17.76;50.31;100478.47;5386423;26;1072;-52
2024/04/19 04:04:12;;;;;;;;;;;;;;;16.86;52.42;100480.47;5385737;26;1209;-52
2024/04/19 04:06:38;;;;;;;;;;;;;;;17.58;52.25;100481.94;5385704;26;1027;-51
2024/04/19 04:09:03;;;;;;;;;;;;;;;16.81;52.23;100479.69;5385677;26;1458;-52
2024/04/19 04:11:29;;;;;;;;;;;;;;;16.49;51.25;100480.91;5385829;26;1160;-49
2024/04/19 04:13:54;;;;;;;;;;;;;;;16.35;50.02;100484.22;5384727;26;1226;-45
2024/04/19 04:16:20;;;;;;;;;;;;;;;16.30;49.00;100489.75;5382509;26;1296;-53
2024/04/19 04:18:45;;;;;;;;;;;;;;;16.16;48.57;100491.41;5378894;26;1500;-46
2024/04/19 04:21:11;;;;;;;;;;;;;;;16.20;48.50;100489.75;5382853;26;1865;-49
2024/04/19 04:23:36;;;;;;;;;;;;;;;17.04;50.93;100487.28;5385490;26;1333;-52
2024/04/19 04:26:03;;;;;;;;;;;;;;;16.46;50.39;100484.22;5386052;26;3013;-52
2024/04/19 04:28:28;;;;;;;;;;;;;;;16.24;49.23;100493.59;5384321;26;1332;-54
2024/04/19 04:30:54;;;;;;;;;;;;;;;16.18;48.34;100494.72;5385542;26;1204;-52
2024/04/19 04:33:19;;;;;;;;;;;;;;;15.94;48.08;100495.31;5386714;26;1160;-50
2024/04/19 04:35:45;;;;;;;;;;;;;;;17.13;49.77;100497.66;5385332;26;1434;-54
2024/04/19 04:38:10;;;;;;;;;;;;;;;16.43;50.12;100493.81;5385439;26;1133;-48
2024/04/19 04:40:36;;;;;;;;;;;;;;;16.26;48.90;100491.41;5385832;26;1887;-51
2024/04/19 04:43:03;;;;;;;;;;;;;;;17.05;49.78;100508.13;5385125;26;1261;-54
2024/04/19 04:45:28;;;;;;;;;;;;;;;16.57;50.02;100502.28;5385159;26;1386;-52
2024/04/19 04:47:54;;;;;;;;;;;;;;;16.34;49.04;100504.56;5385169;26;1232;-50
2024/04/19 04:50:20;;;;;;;;;;;;;;;16.90;49.84;100499.97;5385297;26;1278;-51
2024/04/19 04:52:45;;;;;;;;;;;;;;;16.66;49.88;100495.13;5385303;26;1163;-51
2024/04/19 04:55:11;;;;;;;;;;;;;;;16.36;49.31;100491.38;5384936;26;2744;-51
2024/04/19 04:57:37;;;;;;;;;;;;;;;16.27;48.10;100470.28;5385050;26;1105;-52
2024/04/19 05:00:03;;;;;;;;;;;;;;;16.12;47.48;100469.22;5385430;26;1830;-50
2024/04/19 05:02:28;;;;;;;;;;;;;;;16.06;47.55;100465.66;5384634;26;1241;-52
2024/04/19 05:04:53;;;;;;;;;;;;;;;16.68;49.08;100465.47;5384524;26;1719;-53
2024/04/19 05:07:19;;;;;;;;;;;;;;;16.24;48.57;100471.66;5383106;26;1160;-53
2024/04/19 05:09:45;;;;;;;;;;;;;;;16.03;47.97;100490.06;5384639;26;1302;-48
2024/04/19 05:12:10;;;;;;;;;;;;;;;16.81;48.98;100496.16;5384785;26;1105;-51
2024/04/19 05:14:36;;;;;;;;;;;;;;;16.22;48.83;100490.31;5384941;26;1172;-51
2024/04/19 05:17:01;;;;;;;;;;;;;;;16.12;47.89;100498.56;5384944;26;1270;-55
2024/04/19 05:19:27;;;;;;;;;;;;;;;16.06;47.24;100506.81;5384571;26;1873;-51
2024/04/19 05:21:52;;;;;;;;;;;;;;;17.03;48.51;100520.53;5385056;26;1224;-51
2024/04/19 05:24:18;;;;;;;;;;;;;;;16.28;49.08;100513.88;5384536;26;1331;-52
2024/04/19 05:26:43;;;;;;;;;;;;;;;16.20;47.98;100531.75;5385425;26;2812;-51
2024/04/19 05:29:09;;;;;;;;;;;;;;;16.98;48.44;100540.59;5384732;26;1359;-52
2024/04/19 05:31:35;;;;;;;;;;;;;;;16.38;49.01;100545.97;5384332;26;1094;-52
2024/04/19 05:34:00;;;;;;;;;;;;;;;16.69;48.99;100543.97;5384798;26;1267;-51
2024/04/19 05:36:26;;;;;;;;;;;;;;;17.14;49.35;100554.25;5384463;26;1568;-54
2024/04/19 05:38:51;;;;;;;;;;;;;;;16.58;49.06;100554.16;5385063;26;1168;-53
2024/04/19 05:41:17;;;;;;;;;;;;;;;16.62;49.07;100554.44;5382285;26;1865;-53
2024/04/19 05:43:45;;;;;;;;;;;;;;;16.85;49.46;100554.91;5369436;26;1621;-50
2024/04/19 05:46:10;;;;;;;;;;;;;;;16.50;49.09;100559.41;5384584;26;1159;-52
2024/04/19 05:48:36;;;;;;;;;;;;;;;16.27;48.37;100560.81;5384746;26;1314;-52
2024/04/19 05:51:01;;;;;;;;;;;;;;;16.37;47.98;100561.63;5384278;26;1129;-52
2024/04/19 05:53:27;;;;;;;;;;;;;;;16.82;49.23;100569.22;5384318;26;1171;-52
2024/04/19 05:55:52;;;;;;;;;;;;;;;16.45;48.68;100570.38;5382361;26;2711;-51
2024/04/19 05:58:21;;;;;;;;;;;;;;;16.68;49.25;100567.03;5370365;26;1520;-51
2024/04/19 06:00:47;;;;;;;;;;;;;;;16.73;49.53;100572.53;5382789;26;1817;-51
2024/04/19 06:03:12;;;;;;;;;;;;;;;16.40;48.69;100560.25;5366118;26;1543;-55
2024/04/19 06:05:38;;;;;;;;;;;;;;;16.28;48.02;100563.28;5382929;26;1232;-53
2024/04/19 06:08:04;;;;;;;;;;;;;;;16.12;47.60;100561.66;5377396;26;1361;-54
2024/04/19 06:10:29;;;;;;;;;;;;;;;16.06;47.03;100574.53;5384004;26;1113;-50
2024/04/19 06:12:55;;;;;;;;;;;;;;;16.81;48.56;100579.34;5381830;26;1676;-54
2024/04/19 06:15:20;;;;;;;;;;;;;;;16.31;48.77;100579.19;5381058;26;1665;-54
2024/04/19 06:17:46;;;;;;;;;;;;;;;16.71;48.53;100580.19;5383450;26;1238;-55
2024/04/19 06:20:11;;;;;;;;;;;;;;;16.63;49.08;100578.03;5383104;26;1877;-52
2024/04/19 06:22:37;;;;;;;;;;;;;;;16.32;48.48;100578.09;5380917;26;1607;-53
2024/04/19 06:25:02;;;;;;;;;;;;;;;16.16;47.76;100587.44;5382616;26;2760;-49
2024/04/19 06:27:28;;;;;;;;;;;;;;;16.73;48.36;100586.25;5382499;26;1311;-54
2024/04/19 06:29:53;;;;;;;;;;;;;;;16.80;48.78;100574.94;5382749;26;1273;-55
2024/04/19 06:32:19;;;;;;;;;;;;;;;16.57;49.18;100579.97;5382456;26;1202;-54
2024/04/19 06:34:48;;;;;;;;;;;;;;;17.99;48.52;100574.31;5382374;26;1351;-54
2024/04/19 06:37:14;;;;;;;;;;;;;;;16.84;49.63;100561.50;5385265;26;1456;-54
2024/04/19 06:39:39;;;;;;;;;;;;;;;16.61;48.73;100574.75;5385948;26;1863;-51
2024/04/19 06:42:05;;;;;;;;;;;;;;;16.39;47.83;100569.56;5382945;26;1398;-54
2024/04/19 06:44:30;;;;;;;;;;;;;;;16.33;47.93;100573.44;5385678;26;1412;-53
2024/04/19 06:46:56;;;;;;;;;;;;;;;17.31;48.97;100576.69;5386635;26;1149;-55
2024/04/19 06:49:23;;;;;;;;;;;;;;;16.58;49.13;100572.56;5385675;26;1289;-53
2024/04/19 06:51:49;;;;;;;;;;;;;;;16.44;48.20;100575.06;5386289;26;1355;-53
2024/04/19 06:54:14;;;;;;;;;;;;;;;16.26;47.61;100573.72;5385734;26;1350;-50
2024/04/19 06:56:40;;;;;;;;;;;;;;;16.13;47.07;100571.53;5388482;26;3010;-52
2024/04/19 06:59:06;;;;;;;;;;;;;;;16.13;46.50;100574.28;5385870;26;1495;-53
2024/04/19 07:01:33;;;;;;;;;;;;;;;16.01;46.27;100580.03;5386126;26;1825;-52
2024/04/19 07:03:58;;;;;;;;;;;;;;;16.69;48.04;100571.44;5384614;26;1569;-53
2024/04/19 07:06:24;;;;;;;;;;;;;;;16.24;47.91;100571.25;5385934;26;1362;-51
2024/04/19 07:08:49;;;;;;;;;;;;;;;16.61;48.20;100580.25;5385485;26;1151;-49
2024/04/19 07:11:15;;;;;;;;;;;;;;;16.60;48.50;100579.41;5385711;26;1401;-51
2024/04/19 07:13:46;;;;;;;;;;;;;;;16.38;48.60;100581.66;5385680;26;1465;-53
2024/04/19 07:16:14;;;;;;;;;;;;;;;17.57;48.57;100566.38;5385682;26;1392;-52
2024/04/19 07:18:40;;;;;;;;;;;;;;;16.70;49.21;100573.06;5385092;26;1148;-56
2024/04/19 07:21:05;;;;;;;;;;;;;;;16.62;49.07;100579.16;5385411;26;1853;-50
2024/04/19 07:23:31;;;;;;;;;;;;;;;16.88;49.35;100574.41;5385565;26;1355;-50
2024/04/19 07:25:57;;;;;;;;;;;;;;;16.51;48.78;100575.59;5402389;26;2736;-53
2024/04/19 07:28:22;;;;;;;;;;;;;;;16.30;48.09;100583.03;5385644;26;1237;-52
2024/04/19 07:30:48;;;;;;;;;;;;;;;16.32;47.08;100582.75;5386338;26;1346;-53
2024/04/19 07:33:14;;;;;;;;;;;;;;;17.13;48.16;100585.59;5385339;26;1207;-51
2024/04/19 07:35:39;;;;;;;;;;;;;;;16.92;48.94;100591.16;5385410;26;1097;-48
2024/04/19 07:38:05;;;;;;;;;;;;;;;16.54;48.51;100596.19;5385463;26;1444;-50
2024/04/19 07:40:34;;;;;;;;;;;;;;;16.37;47.68;100597.31;5385524;26;1826;-51
2024/04/19 07:42:59;;;;;;;;;;;;;;;17.34;48.46;100598.09;5385301;26;1222;-51
2024/04/19 07:45:25;;;;;;;;;;;;;;;16.66;48.77;100604.09;5384797;26;1507;-46
2024/04/19 07:47:51;;;;;;;;;;;;;;;17.05;48.96;100596.03;5383914;26;1465;-49
2024/04/19 07:50:16;;;;;;;;;;;;;;;17.10;48.89;100604.25;5385284;26;1201;-49
2024/04/19 07:52:42;;;;;;;;;;;;;;;16.61;48.84;100607.69;5385751;26;1160;-48
2024/04/19 07:55:08;;;;;;;;;;;;;;;16.40;48.23;100610.47;5384989;26;2669;-48
2024/04/19 07:57:34;;;;;;;;;;;;;;;17.25;48.60;100599.78;5384557;26;1072;-52
2024/04/19 08:00:00;;;;;;;;;;;;;;;16.68;48.61;100604.66;5384627;26;1826;-52
2024/04/19 08:02:26;;;;;;;;;;;;;;;17.31;48.74;100593.19;5385993;26;1240;-46
2024/04/19 08:04:51;;;;;;;;;;;;;;;17.02;49.13;100601.28;5385888;26;1168;-51
2024/04/19 08:07:17;;;;;;;;;;;;;;;16.64;48.53;100593.41;5383507;26;1881;-48
2024/04/19 08:09:43;;;;;;;;;;;;;;;16.49;47.70;100596.19;5383656;26;1633;-50
2024/04/19 08:12:08;;;;;;;;;;;;;;;17.21;48.54;100604.22;5385305;26;1051;-52
2024/04/19 08:14:34;;;;;;;;;;;;;;;16.64;48.55;100606.31;5385132;26;1322;-54
2024/04/19 08:17:00;;;;;;;;;;;;;;;16.44;47.86;100602.50;5385110;26;1244;-49
2024/04/19 08:19:25;;;;;;;;;;;;;;;16.43;46.94;100596.19;5381895;26;1833;-50
2024/04/19 08:21:51;;;;;;;;;;;;;;;16.33;46.93;100595.41;5384584;26;1182;-50
2024/04/19 08:24:17;;;;;;;;;;;;;;;17.24;48.04;100587.19;5384162;26;1381;-49
2024/04/19 08:26:42;;;;;;;;;;;;;;;16.60;48.48;100584.88;5384272;26;2775;-53
2024/04/19 08:29:08;;;;;;;;;;;;;;;16.33;47.83;100582.50;5385929;26;1132;-50
2024/04/19 08:31:37;;;;;;;;;;;;;;;16.24;47.39;100579.50;5385038;26;1242;-51
2024/04/19 08:34:03;;;;;;;;;;;;;;;17.19;48.00;100579.75;5383463;26;1285;-51
2024/04/19 08:36:28;;;;;;;;;;;;;;;16.57;48.46;100576.41;5384256;26;1473;-51
2024/04/19 08:38:54;;;;;;;;;;;;;;;16.44;47.74;100566.84;5384329;26;1257;-48
2024/04/19 08:41:19;;;;;;;;;;;;;;;16.29;47.09;100573.16;5383172;26;1873;-51
2024/04/19 08:43:45;;;;;;;;;;;;;;;17.38;47.73;100566.19;5381489;26;1401;-53
2024/04/19 08:46:11;;;;;;;;;;;;;;;16.74;48.60;100568.66;5382639;26;1917;-53
2024/04/19 08:48:37;;;;;;;;;;;;;;;16.45;48.14;100576.69;5384322;26;1461;-50
2024/04/19 08:51:02;;;;;;;;;;;;;;;16.36;47.34;100565.47;5342303;26;1579;-49
2024/04/19 08:53:28;;;;;;;;;;;;;;;16.31;46.78;100567.41;5371098;26;1186;-51
2024/04/19 08:55:54;;;;;;;;;;;;;;;16.22;46.25;100562.47;5352851;26;2679;-55
2024/04/19 08:58:21;;;;;;;;;;;;;;;17.25;47.50;100559.41;5383493;26;1437;-53
2024/04/19 09:00:46;;;;;;;;;;;;;;;16.56;48.18;100566.53;5353607;26;1838;-53
2024/04/19 09:03:12;;;;;;;;;;;;;;;16.37;47.58;100563.56;5383854;26;1417;-53
2024/04/19 09:05:38;;;;;;;;;;;;;;;17.10;48.05;100563.06;5384344;26;1575;-50
2024/04/19 09:08:05;;;;;;;;;;;;;;;16.50;48.34;100562.97;5381320;26;1323;-51
2024/04/19 09:10:31;;;;;;;;;;;;;;;16.33;47.65;100568.78;5367762;26;1399;-51
2024/04/19 09:12:57;;;;;;;;;;;;;;;16.26;46.91;100565.50;5383939;26;1336;-52
2024/04/19 09:15:27;;;;;;;;;;;;;;;17.06;48.27;100561.97;5383271;26;1491;-52
2024/04/19 09:17:55;;;;;;;;;;;;;;;16.53;48.28;100559.66;5347692;26;1276;-52
2024/04/19 09:20:22;;;;;;;;;;;;;;;16.32;47.66;100567.13;5344697;26;1834;-53
2024/04/19 09:22:48;;;;;;;;;;;;;;;17.40;47.72;100568.66;5383401;26;1419;-54
2024/04/19 09:25:15;;;;;;;;;;;;;;;16.67;48.40;100550.84;5384424;26;2648;-50
2024/04/19 09:27:41;;;;;;;;;;;;;;;16.47;47.68;100551.75;5384109;26;1259;-55
2024/04/19 09:30:08;;;;;;;;;;;;;;;17.28;48.04;100542.34;5384614;26;1128;-51
2024/04/19 09:32:33;;;;;;;;;;;;;;;16.59;48.56;100547.59;5384272;26;1278;-53
2024/04/19 09:34:59;;;;;;;;;;;;;;;17.93;47.92;100554.28;5383172;26;1402;-52
2024/04/19 09:37:26;;;;;;;;;;;;;;;17.32;48.85;100547.28;5382250;26;1591;-52
2024/04/19 09:39:51;;;;;;;;;;;;;;;16.85;48.60;100543.91;5373221;26;1870;-53
2024/04/19 09:42:17;;;;;;;;;;;;;;;16.75;47.84;100537.34;5347889;26;1189;-53
2024/04/19 09:44:42;;;;;;;;;;;;;;;16.53;47.29;100539.63;5353299;26;1638;-54
2024/04/19 09:47:08;;;;;;;;;;;;;;;16.52;46.81;100548.97;5347727;26;2872;-53
2024/04/19 09:49:34;;;;;;;;;;;;;;;16.32;46.68;100539.69;5360881;26;1782;-52
2024/04/19 09:51:59;;;;;;;;;;;;;;;16.88;47.41;100535.13;5353788;26;1171;-54
2024/04/19 09:54:32;;;;;;;;;;;;;;;16.89;48.63;100536.78;5351022;26;1176;-54
2024/04/19 09:56:59;;;;;;;;;;;;;;;16.55;48.03;100526.44;5353761;26;1270;-53
2024/04/19 09:59:25;;;;;;;;;;;;;;;16.39;47.42;100523.75;5384496;26;1345;-54
2024/04/19 10:01:51;;;;;;;;;;;;;;;16.40;46.81;100519.09;5384919;26;1853;-54
2024/04/19 10:04:16;;;;;;;;;;;;;;;16.16;46.81;100514.19;5385144;26;1187;-51
2024/04/19 10:06:42;;;;;;;;;;;;;;;16.95;47.40;100512.88;5385209;26;1279;-48
2024/04/19 10:09:13;;;;;;;;;;;;;;;16.79;48.20;100503.84;5353601;26;1200;-52
2024/04/19 10:11:42;;;;;;;;;;;;;;;16.43;47.99;100496.56;5385575;26;1315;-52
2024/04/19 10:14:07;;;;;;;;;;;;;;;16.37;47.24;100508.69;5388109;26;1243;-52
2024/04/19 10:16:33;;;;;;;;;;;;;;;16.17;46.91;100504.03;5388040;26;1308;-53
2024/04/19 10:18:58;;;;;;;;;;;;;;;16.85;47.43;100503.53;5350152;26;1142;-54
2024/04/19 10:21:25;;;;;;;;;;;;;;;16.70;48.40;100504.41;5350433;26;1822;-52
2024/04/19 10:23:51;;;;;;;;;;;;;;;16.40;48.06;100503.44;5357234;26;1241;-51
2024/04/19 10:26:22;;;;;;;;;;;;;;;16.63;47.86;100503.09;5388196;26;1260;-50
2024/04/19 10:28:54;;;;;;;;;;;;;;;16.93;48.44;100502.97;5376480;26;1715;-49
2024/04/19 10:31:20;;;;;;;;;;;;;;;16.47;48.13;100497.66;5378710;26;1195;-51
2024/04/19 10:33:49;;;;;;;;;;;;;;;16.37;47.34;100493.03;5371486;26;1311;-50
2024/04/19 10:36:14;;;;;;;;;;;;;;;16.30;46.86;100499.88;5381069;26;1089;-47
2024/04/19 10:38:40;;;;;;;;;;;;;;;16.52;47.38;100494.91;5386274;26;1187;-47
2024/04/19 10:41:06;;;;;;;;;;;;;;;16.73;48.45;100494.81;5386489;26;1829;-50
2024/04/19 10:43:31;;;;;;;;;;;;;;;16.49;47.84;100494.63;5356554;26;1173;-48
2024/04/19 10:45:57;;;;;;;;;;;;;;;17.56;47.66;100492.44;5381804;26;1309;-50
2024/04/19 10:48:23;;;;;;;;;;;;;;;16.76;48.52;100500.56;5386446;26;1233;-53
2024/04/19 10:50:49;;;;;;;;;;;;;;;16.52;48.12;100494.06;5383921;26;1436;-53
2024/04/19 10:53:16;;;;;;;;;;;;;;;16.45;47.14;100496.28;5386830;26;1510;-53
2024/04/19 10:55:42;;;;;;;;;;;;;;;16.49;47.67;100494.63;5388048;26;1238;-50
2024/04/19 10:58:08;;;;;;;;;;;;;;;16.94;48.34;100490.06;5387000;26;1196;-53
2024/04/19 11:00:33;;;;;;;;;;;;;;;16.46;48.14;100492.44;5387178;26;1861;-51
2024/04/19 11:02:59;;;;;;;;;;;;;;;17.45;47.98;100489.75;5356019;26;1176;-50
2024/04/19 11:05:25;;;;;;;;;;;;;;;16.74;48.61;100491.78;5375971;26;1540;-51
2024/04/19 11:07:50;;;;;;;;;;;;;;;16.50;48.06;100490.78;5375340;26;1830;-49
2024/04/19 11:10:15;;;;;;;;;;;;;;;16.34;47.48;100496.34;5385441;26;1172;-47
2024/04/19 11:12:41;;;;;;;;;;;;;;;16.22;46.83;100506.78;5385800;26;1206;-51
2024/04/19 11:15:06;;;;;;;;;;;;;;;16.88;47.46;100499.41;5386044;26;1092;-52
2024/04/19 11:17:32;;;;;;;;;;;;;;;16.86;48.28;100498.88;5387191;26;1166;-51
2024/04/19 11:19:58;;;;;;;;;;;;;;;16.46;48.03;100497.94;5384878;26;1825;-53
2024/04/19 11:22:24;;;;;;;;;;;;;;;16.35;47.29;100502.63;5385812;26;1056;-50
2024/04/19 11:24:52;;;;;;;;;;;;;;;16.22;46.80;100496.63;5386748;26;1205;-51
2024/04/19 11:27:18;;;;;;;;;;;;;;;17.07;47.85;100497.69;5386260;26;1219;-52
2024/04/19 11:29:43;;;;;;;;;;;;;;;16.45;48.39;100485.31;5387120;26;1279;-49
2024/04/19 11:32:09;;;;;;;;;;;;;;;16.32;47.71;100490.28;5386607;26;1242;-51
2024/04/19 11:34:34;;;;;;;;;;;;;;;17.02;48.14;100491.41;5384856;26;1197;-47
2024/04/19 11:37:03;;;;;;;;;;;;;;;16.53;48.19;100491.03;5384210;26;1763;-53
2024/04/19 11:39:32;;;;;;;;;;;;;;;17.38;48.18;100483.75;5384667;26;1826;-51
2024/04/19 11:41:58;;;;;;;;;;;;;;;16.89;48.40;100495.59;5386212;26;1426;-51
2024/04/19 11:44:23;;;;;;;;;;;;;;;16.59;47.96;100489.09;5386313;26;1227;-54
2024/04/19 11:46:49;;;;;;;;;;;;;;;16.41;47.45;100485.88;5385410;26;1381;-53
2024/04/19 11:49:14;;;;;;;;;;;;;;;16.29;46.82;100479.88;5386047;26;1503;-54
2024/04/19 11:51:47;;;;;;;;;;;;;;;16.88;47.71;100472.78;5386265;26;1610;-48
2024/04/19 11:54:18;;;;;;;;;;;;;;;16.51;48.27;100474.03;5364535;26;1157;-51
2024/04/19 11:56:44;;;;;;;;;;;;;;;16.29;47.79;100459.84;5386235;26;1128;-49
2024/04/19 11:59:14;;;;;;;;;;;;;;;17.43;47.74;100463.63;5385691;26;1314;-55
2024/04/19 12:01:40;;;;;;;;;;;;;;;16.76;48.71;100462.13;5385995;26;1857;-49
2024/04/19 12:04:05;;;;;;;;;;;;;;;16.54;48.14;100458.94;5385278;26;1152;-53
2024/04/19 12:06:31;;;;;;;;;;;;;;;17.08;48.34;100458.13;5385828;26;1171;-52
2024/04/19 12:08:56;;;;;;;;;;;;;;;17.03;48.77;100451.84;5385967;26;1054;-52
2024/04/19 12:11:22;;;;;;;;;;;;;;;16.62;48.45;100450.13;5385697;26;1578;-54
2024/04/19 12:13:48;;;;;;;;;;;;;;;16.87;48.34;100456.56;5386144;26;1195;-51
2024/04/19 12:16:14;;;;;;;;;;;;;;;16.85;48.65;100443.13;5384787;26;1106;-51
2024/04/19 12:18:39;;;;;;;;;;;;;;;16.62;48.00;100449.28;5384228;26;1655;-52
2024/04/19 12:21:05;;;;;;;;;;;;;;;16.43;47.56;100449.91;5383576;26;1833;-52
2024/04/19 12:23:30;;;;;;;;;;;;;;;16.69;47.54;100455.28;5385472;26;1195;-52
2024/04/19 12:25:56;;;;;;;;;;;;;;;16.89;48.33;100454.41;5385501;26;1177;-51
2024/04/19 12:28:24;;;;;;;;;;;;;;;16.55;48.08;100460.56;5385871;26;1256;-51
2024/04/19 12:30:52;;;;;;;;;;;;;;;16.38;47.18;100449.94;5385982;26;1169;-52
2024/04/19 12:33:18;;;;;;;;;;;;;;;17.28;47.81;100448.91;5384814;26;1341;-50
2024/04/19 12:35:44;;;;;;;;;;;;;;;16.63;48.12;100449.00;5382664;26;1247;-50
2024/04/19 12:38:09;;;;;;;;;;;;;;;16.45;47.39;100446.88;5385342;26;1224;-51
2024/04/19 12:40:35;;;;;;;;;;;;;;;17.66;47.19;100448.34;5385416;26;1833;-49
2024/04/19 12:43:00;;;;;;;;;;;;;;;16.76;48.34;100445.66;5355251;26;1121;-53
2024/04/19 12:45:26;;;;;;;;;;;;;;;16.56;47.72;100451.22;5385814;26;1151;-53
2024/04/19 12:47:51;;;;;;;;;;;;;;;17.45;47.84;100440.25;5385240;26;1151;-54